sensor_id;sensor_type;location;lat;lon;timestamp;P1;durP1;ratioP1;P2;durP2;ratioP2
51612;SDS011;37694;51.748;14.326;2023-04-05T00:01:23;8.27;;;6.68;;
51612;SDS011;37694;51.748;14.326;2023-04-05T00:03:53;10.07;;;6.15;;
51612;SDS011;37694;51.748;14.326;2023-04-05T00:06:20;6.75;;;5.68;;
51612;SDS011;37694;51.748;14.326;2023-04-05T00:08:53;5.70;;;5.07;;
51612;SDS011;37694;51.748;14.326;2023-04-05T00:11:22;7.15;;;5.95;;
51612;SDS011;37694;51.748;14.326;2023-04-05T00:13:49;7.82;;;6.10;;
51612;SDS011;37694;51.748;14.326;2023-04-05T00:16:15;6.80;;;5.80;;
51612;SDS011;37694;51.748;14.326;2023-04-05T00:18:41;8.30;;;6.13;;
51612;SDS011;37694;51.748;14.326;2023-04-05T00:21:13;7.68;;;5.80;;
51612;SDS011;37694;51.748;14.326;2023-04-05T00:23:40;7.63;;;5.78;;
51612;SDS011;37694;51.748;14.326;2023-04-05T00:26:06;9.30;;;6.38;;
51612;SDS011;37694;51.748;14.326;2023-04-05T00:28:32;7.40;;;6.57;;
51612;SDS011;37694;51.748;14.326;2023-04-05T00:30:58;8.50;;;6.22;;
51612;SDS011;37694;51.748;14.326;2023-04-05T00:33:24;8.30;;;6.25;;
51612;SDS011;37694;51.748;14.326;2023-04-05T00:35:49;10.00;;;6.43;;
51612;SDS011;37694;51.748;14.326;2023-04-05T00:38:15;6.35;;;5.75;;
51612;SDS011;37694;51.748;14.326;2023-04-05T00:40:41;8.25;;;6.25;;
51612;SDS011;37694;51.748;14.326;2023-04-05T00:43:07;9.38;;;6.38;;
51612;SDS011;37694;51.748;14.326;2023-04-05T00:45:32;12.65;;;6.50;;
51612;SDS011;37694;51.748;14.326;2023-04-05T00:47:58;7.72;;;5.15;;
51612;SDS011;37694;51.748;14.326;2023-04-05T00:50:25;9.68;;;6.40;;
51612;SDS011;37694;51.748;14.326;2023-04-05T00:52:55;11.07;;;5.70;;
51612;SDS011;37694;51.748;14.326;2023-04-05T00:55:22;6.55;;;5.70;;
51612;SDS011;37694;51.748;14.326;2023-04-05T00:57:47;6.60;;;5.68;;
51612;SDS011;37694;51.748;14.326;2023-04-05T01:00:14;7.78;;;5.95;;
51612;SDS011;37694;51.748;14.326;2023-04-05T01:10:34;6.18;;;5.53;;
51612;SDS011;37694;51.748;14.326;2023-04-05T01:13:04;10.45;;;6.78;;
51612;SDS011;37694;51.748;14.326;2023-04-05T01:15:30;7.10;;;5.40;;
51612;SDS011;37694;51.748;14.326;2023-04-05T01:17:56;8.98;;;5.43;;
51612;SDS011;37694;51.748;14.326;2023-04-05T01:20:26;7.82;;;5.82;;
51612;SDS011;37694;51.748;14.326;2023-04-05T01:33:55;6.60;;;4.90;;
51612;SDS011;37694;51.748;14.326;2023-04-05T01:36:38;8.13;;;5.25;;
51612;SDS011;37694;51.748;14.326;2023-04-05T01:39:08;6.25;;;4.45;;
51612;SDS011;37694;51.748;14.326;2023-04-05T01:41:40;5.93;;;5.22;;
51612;SDS011;37694;51.748;14.326;2023-04-05T01:44:06;8.15;;;5.47;;
51612;SDS011;37694;51.748;14.326;2023-04-05T01:46:31;6.80;;;5.03;;
51612;SDS011;37694;51.748;14.326;2023-04-05T01:48:57;7.75;;;5.57;;
51612;SDS011;37694;51.748;14.326;2023-04-05T01:51:23;5.35;;;4.85;;
51612;SDS011;37694;51.748;14.326;2023-04-05T01:53:49;5.82;;;5.22;;
51612;SDS011;37694;51.748;14.326;2023-04-05T01:56:15;5.93;;;4.88;;
51612;SDS011;37694;51.748;14.326;2023-04-05T01:58:41;7.28;;;5.38;;
51612;SDS011;37694;51.748;14.326;2023-04-05T02:01:06;9.85;;;5.63;;
51612;SDS011;37694;51.748;14.326;2023-04-05T02:03:32;6.18;;;4.70;;
51612;SDS011;37694;51.748;14.326;2023-04-05T02:05:58;6.38;;;5.13;;
51612;SDS011;37694;51.748;14.326;2023-04-05T02:08:23;6.70;;;5.18;;
51612;SDS011;37694;51.748;14.326;2023-04-05T02:10:51;5.32;;;4.55;;
51612;SDS011;37694;51.748;14.326;2023-04-05T02:13:17;6.60;;;5.03;;
51612;SDS011;37694;51.748;14.326;2023-04-05T02:15:49;5.68;;;4.55;;
51612;SDS011;37694;51.748;14.326;2023-04-05T02:18:15;5.70;;;4.70;;
51612;SDS011;37694;51.748;14.326;2023-04-05T02:20:49;5.97;;;4.35;;
51612;SDS011;37694;51.748;14.326;2023-04-05T02:23:16;6.22;;;5.15;;
51612;SDS011;37694;51.748;14.326;2023-04-05T02:25:43;6.60;;;4.57;;
51612;SDS011;37694;51.748;14.326;2023-04-05T02:28:08;7.32;;;4.75;;
51612;SDS011;37694;51.748;14.326;2023-04-05T02:30:34;5.25;;;4.35;;
51612;SDS011;37694;51.748;14.326;2023-04-05T02:33:00;5.07;;;4.57;;
51612;SDS011;37694;51.748;14.326;2023-04-05T02:35:27;5.05;;;4.38;;
51612;SDS011;37694;51.748;14.326;2023-04-05T02:37:53;7.90;;;4.78;;
51612;SDS011;37694;51.748;14.326;2023-04-05T02:40:20;5.72;;;4.65;;
51612;SDS011;37694;51.748;14.326;2023-04-05T02:42:46;5.28;;;4.13;;
51612;SDS011;37694;51.748;14.326;2023-04-05T02:45:12;5.15;;;4.57;;
51612;SDS011;37694;51.748;14.326;2023-04-05T02:47:38;4.82;;;4.22;;
51612;SDS011;37694;51.748;14.326;2023-04-05T02:50:04;5.15;;;4.18;;
51612;SDS011;37694;51.748;14.326;2023-04-05T02:52:30;5.75;;;4.57;;
51612;SDS011;37694;51.748;14.326;2023-04-05T02:54:56;5.10;;;4.22;;
51612;SDS011;37694;51.748;14.326;2023-04-05T02:57:21;5.15;;;4.22;;
51612;SDS011;37694;51.748;14.326;2023-04-05T02:59:47;4.43;;;3.83;;
51612;SDS011;37694;51.748;14.326;2023-04-05T03:02:13;4.70;;;4.30;;
51612;SDS011;37694;51.748;14.326;2023-04-05T03:04:38;5.47;;;3.83;;
51612;SDS011;37694;51.748;14.326;2023-04-05T03:07:05;5.47;;;4.40;;
51612;SDS011;37694;51.748;14.326;2023-04-05T03:09:31;7.40;;;4.28;;
51612;SDS011;37694;51.748;14.326;2023-04-05T03:12:00;4.45;;;3.80;;
51612;SDS011;37694;51.748;14.326;2023-04-05T03:14:28;5.43;;;4.55;;
51612;SDS011;37694;51.748;14.326;2023-04-05T03:16:54;4.28;;;3.88;;
51612;SDS011;37694;51.748;14.326;2023-04-05T03:19:20;6.00;;;4.28;;
51612;SDS011;37694;51.748;14.326;2023-04-05T03:21:47;4.85;;;4.05;;
51612;SDS011;37694;51.748;14.326;2023-04-05T03:24:13;5.32;;;4.25;;
51612;SDS011;37694;51.748;14.326;2023-04-05T03:26:40;6.10;;;3.95;;
51612;SDS011;37694;51.748;14.326;2023-04-05T03:29:09;5.03;;;4.13;;
51612;SDS011;37694;51.748;14.326;2023-04-05T03:31:35;4.97;;;4.15;;
51612;SDS011;37694;51.748;14.326;2023-04-05T03:34:01;6.43;;;4.20;;
51612;SDS011;37694;51.748;14.326;2023-04-05T03:36:27;5.00;;;3.92;;
51612;SDS011;37694;51.748;14.326;2023-04-05T03:39:05;4.93;;;3.30;;
51612;SDS011;37694;51.748;14.326;2023-04-05T03:41:35;5.55;;;4.38;;
51612;SDS011;37694;51.748;14.326;2023-04-05T03:44:01;4.18;;;3.75;;
51612;SDS011;37694;51.748;14.326;2023-04-05T03:46:27;4.72;;;4.28;;
51612;SDS011;37694;51.748;14.326;2023-04-05T03:48:53;7.43;;;3.63;;
51612;SDS011;37694;51.748;14.326;2023-04-05T03:51:19;6.30;;;4.20;;
51612;SDS011;37694;51.748;14.326;2023-04-05T03:53:44;4.85;;;3.80;;
51612;SDS011;37694;51.748;14.326;2023-04-05T03:56:10;4.32;;;3.40;;
51612;SDS011;37694;51.748;14.326;2023-04-05T03:58:36;4.25;;;3.58;;
51612;SDS011;37694;51.748;14.326;2023-04-05T04:01:02;5.00;;;3.25;;
51612;SDS011;37694;51.748;14.326;2023-04-05T04:03:28;5.45;;;3.88;;
51612;SDS011;37694;51.748;14.326;2023-04-05T04:05:55;4.13;;;3.38;;
51612;SDS011;37694;51.748;14.326;2023-04-05T04:08:21;3.60;;;3.30;;
51612;SDS011;37694;51.748;14.326;2023-04-05T04:10:47;5.32;;;3.85;;
51612;SDS011;37694;51.748;14.326;2023-04-05T04:13:13;4.35;;;3.40;;
51612;SDS011;37694;51.748;14.326;2023-04-05T04:15:39;4.10;;;3.60;;
51612;SDS011;37694;51.748;14.326;2023-04-05T04:18:05;3.90;;;3.50;;
51612;SDS011;37694;51.748;14.326;2023-04-05T04:20:30;3.63;;;3.33;;
51612;SDS011;37694;51.748;14.326;2023-04-05T04:22:56;4.72;;;3.97;;
51612;SDS011;37694;51.748;14.326;2023-04-05T04:25:22;4.35;;;3.58;;
51612;SDS011;37694;51.748;14.326;2023-04-05T04:27:50;4.25;;;3.47;;
51612;SDS011;37694;51.748;14.326;2023-04-05T04:30:16;6.55;;;4.22;;
51612;SDS011;37694;51.748;14.326;2023-04-05T04:32:46;7.38;;;3.55;;
51612;SDS011;37694;51.748;14.326;2023-04-05T04:35:15;6.15;;;3.22;;
51612;SDS011;37694;51.748;14.326;2023-04-05T04:37:49;3.50;;;3.20;;
51612;SDS011;37694;51.748;14.326;2023-04-05T04:40:19;4.07;;;3.65;;
51612;SDS011;37694;51.748;14.326;2023-04-05T04:42:46;4.55;;;3.60;;
51612;SDS011;37694;51.748;14.326;2023-04-05T04:45:13;7.60;;;3.60;;
51612;SDS011;37694;51.748;14.326;2023-04-05T04:47:43;4.25;;;3.22;;
51612;SDS011;37694;51.748;14.326;2023-04-05T04:50:11;3.60;;;3.03;;
51612;SDS011;37694;51.748;14.326;2023-04-05T04:52:38;4.47;;;2.97;;
51612;SDS011;37694;51.748;14.326;2023-04-05T04:55:07;3.80;;;3.50;;
51612;SDS011;37694;51.748;14.326;2023-04-05T04:57:34;3.80;;;3.08;;
51612;SDS011;37694;51.748;14.326;2023-04-05T05:00:00;3.90;;;3.17;;
51612;SDS011;37694;51.748;14.326;2023-04-05T05:02:26;6.20;;;3.28;;
51612;SDS011;37694;51.748;14.326;2023-04-05T05:04:52;4.00;;;2.63;;
51612;SDS011;37694;51.748;14.326;2023-04-05T05:07:18;6.00;;;3.35;;
51612;SDS011;37694;51.748;14.326;2023-04-05T05:09:45;3.75;;;3.28;;
51612;SDS011;37694;51.748;14.326;2023-04-05T05:12:11;6.28;;;3.50;;
51612;SDS011;37694;51.748;14.326;2023-04-05T05:14:37;5.70;;;3.60;;
51612;SDS011;37694;51.748;14.326;2023-04-05T05:17:03;15.20;;;3.47;;
51612;SDS011;37694;51.748;14.326;2023-04-05T05:19:30;15.02;;;4.38;;
51612;SDS011;37694;51.748;14.326;2023-04-05T05:21:56;10.77;;;3.63;;
51612;SDS011;37694;51.748;14.326;2023-04-05T05:24:22;9.60;;;4.22;;
51612;SDS011;37694;51.748;14.326;2023-04-05T05:26:48;9.73;;;3.85;;
51612;SDS011;37694;51.748;14.326;2023-04-05T05:29:14;15.30;;;4.22;;
51612;SDS011;37694;51.748;14.326;2023-04-05T05:31:40;11.88;;;4.15;;
51612;SDS011;37694;51.748;14.326;2023-04-05T05:34:06;10.77;;;3.85;;
51612;SDS011;37694;51.748;14.326;2023-04-05T05:36:31;16.45;;;4.20;;
51612;SDS011;37694;51.748;14.326;2023-04-05T05:38:57;15.27;;;4.00;;
51612;SDS011;37694;51.748;14.326;2023-04-05T05:41:23;8.00;;;3.20;;
51612;SDS011;37694;51.748;14.326;2023-04-05T05:43:48;25.52;;;5.45;;
51612;SDS011;37694;51.748;14.326;2023-04-05T05:46:14;37.72;;;8.98;;
51612;SDS011;37694;51.748;14.326;2023-04-05T05:48:40;69.38;;;17.40;;
51612;SDS011;37694;51.748;14.326;2023-04-05T05:51:06;55.00;;;13.27;;
51612;SDS011;37694;51.748;14.326;2023-04-05T05:53:38;91.18;;;19.35;;
51612;SDS011;37694;51.748;14.326;2023-04-05T05:56:04;121.90;;;26.65;;
51612;SDS011;37694;51.748;14.326;2023-04-05T05:58:30;103.07;;;22.92;;
51612;SDS011;37694;51.748;14.326;2023-04-05T06:00:56;111.05;;;27.00;;
51612;SDS011;37694;51.748;14.326;2023-04-05T06:03:23;114.03;;;25.52;;
51612;SDS011;37694;51.748;14.326;2023-04-05T06:05:54;108.90;;;29.77;;
51612;SDS011;37694;51.748;14.326;2023-04-05T06:08:21;126.68;;;31.35;;
51612;SDS011;37694;51.748;14.326;2023-04-05T06:10:47;110.00;;;27.98;;
51612;SDS011;37694;51.748;14.326;2023-04-05T06:13:13;97.45;;;26.90;;
51612;SDS011;37694;51.748;14.326;2023-04-05T06:15:41;92.05;;;24.23;;
51612;SDS011;37694;51.748;14.326;2023-04-05T06:18:07;103.97;;;25.48;;
51612;SDS011;37694;51.748;14.326;2023-04-05T06:20:33;83.13;;;23.27;;
51612;SDS011;37694;51.748;14.326;2023-04-05T06:22:59;86.88;;;24.67;;
51612;SDS011;37694;51.748;14.326;2023-04-05T06:25:25;76.07;;;23.73;;
51612;SDS011;37694;51.748;14.326;2023-04-05T06:27:51;86.07;;;24.00;;
51612;SDS011;37694;51.748;14.326;2023-04-05T06:30:17;82.25;;;25.05;;
51612;SDS011;37694;51.748;14.326;2023-04-05T06:32:42;77.80;;;24.25;;
51612;SDS011;37694;51.748;14.326;2023-04-05T06:35:08;75.40;;;23.40;;
51612;SDS011;37694;51.748;14.326;2023-04-05T06:37:34;66.15;;;20.52;;
51612;SDS011;37694;51.748;14.326;2023-04-05T06:39:59;72.15;;;21.75;;
51612;SDS011;37694;51.748;14.326;2023-04-05T06:42:25;72.03;;;20.77;;
51612;SDS011;37694;51.748;14.326;2023-04-05T06:44:51;74.28;;;20.17;;
51612;SDS011;37694;51.748;14.326;2023-04-05T06:47:16;57.40;;;19.80;;
51612;SDS011;37694;51.748;14.326;2023-04-05T06:49:42;52.15;;;18.65;;
51612;SDS011;37694;51.748;14.326;2023-04-05T06:52:08;73.32;;;18.90;;
51612;SDS011;37694;51.748;14.326;2023-04-05T06:54:33;66.18;;;16.95;;
51612;SDS011;37694;51.748;14.326;2023-04-05T06:57:01;55.42;;;19.05;;
51612;SDS011;37694;51.748;14.326;2023-04-05T06:59:28;62.45;;;18.38;;
51612;SDS011;37694;51.748;14.326;2023-04-05T07:01:54;67.65;;;19.38;;
51612;SDS011;37694;51.748;14.326;2023-04-05T07:04:20;56.53;;;18.27;;
51612;SDS011;37694;51.748;14.326;2023-04-05T07:06:46;51.22;;;19.83;;
51612;SDS011;37694;51.748;14.326;2023-04-05T07:09:12;55.03;;;17.75;;
51612;SDS011;37694;51.748;14.326;2023-04-05T07:11:37;51.38;;;17.85;;
51612;SDS011;37694;51.748;14.326;2023-04-05T07:14:04;48.03;;;16.70;;
51612;SDS011;37694;51.748;14.326;2023-04-05T07:16:30;56.55;;;18.20;;
51612;SDS011;37694;51.748;14.326;2023-04-05T07:18:56;57.80;;;19.17;;
51612;SDS011;37694;51.748;14.326;2023-04-05T07:21:22;43.10;;;16.75;;
51612;SDS011;37694;51.748;14.326;2023-04-05T07:23:47;49.45;;;18.75;;
51612;SDS011;37694;51.748;14.326;2023-04-05T07:26:13;47.95;;;16.98;;
51612;SDS011;37694;51.748;14.326;2023-04-05T07:28:39;51.60;;;17.90;;
51612;SDS011;37694;51.748;14.326;2023-04-05T07:31:05;50.83;;;18.13;;
51612;SDS011;37694;51.748;14.326;2023-04-05T07:33:31;47.42;;;15.57;;
51612;SDS011;37694;51.748;14.326;2023-04-05T07:35:57;47.15;;;17.55;;
51612;SDS011;37694;51.748;14.326;2023-04-05T07:38:24;47.85;;;17.30;;
51612;SDS011;37694;51.748;14.326;2023-04-05T07:40:51;49.13;;;16.90;;
51612;SDS011;37694;51.748;14.326;2023-04-05T07:43:17;42.65;;;15.35;;
51612;SDS011;37694;51.748;14.326;2023-04-05T07:45:43;43.53;;;15.88;;
51612;SDS011;37694;51.748;14.326;2023-04-05T07:48:09;39.60;;;15.68;;
51612;SDS011;37694;51.748;14.326;2023-04-05T07:50:34;34.53;;;15.85;;
51612;SDS011;37694;51.748;14.326;2023-04-05T07:53:03;40.58;;;14.88;;
51612;SDS011;37694;51.748;14.326;2023-04-05T07:55:29;37.63;;;15.32;;
51612;SDS011;37694;51.748;14.326;2023-04-05T07:57:55;32.42;;;14.70;;
51612;SDS011;37694;51.748;14.326;2023-04-05T08:00:22;45.53;;;14.80;;
51612;SDS011;37694;51.748;14.326;2023-04-05T08:02:48;28.23;;;13.50;;
51612;SDS011;37694;51.748;14.326;2023-04-05T08:05:13;35.10;;;14.00;;
51612;SDS011;37694;51.748;14.326;2023-04-05T08:07:39;30.13;;;13.50;;
51612;SDS011;37694;51.748;14.326;2023-04-05T08:10:05;37.65;;;15.02;;
51612;SDS011;37694;51.748;14.326;2023-04-05T08:12:32;36.28;;;14.23;;
51612;SDS011;37694;51.748;14.326;2023-04-05T08:14:58;34.20;;;13.88;;
51612;SDS011;37694;51.748;14.326;2023-04-05T08:17:23;33.95;;;13.50;;
51612;SDS011;37694;51.748;14.326;2023-04-05T08:19:52;24.80;;;12.40;;
51612;SDS011;37694;51.748;14.326;2023-04-05T08:22:18;29.30;;;12.98;;
51612;SDS011;37694;51.748;14.326;2023-04-05T08:24:44;37.72;;;13.40;;
51612;SDS011;37694;51.748;14.326;2023-04-05T08:27:10;31.58;;;13.52;;
51612;SDS011;37694;51.748;14.326;2023-04-05T08:29:36;32.92;;;14.10;;
51612;SDS011;37694;51.748;14.326;2023-04-05T08:32:02;25.42;;;12.13;;
51612;SDS011;37694;51.748;14.326;2023-04-05T08:34:28;35.35;;;14.70;;
51612;SDS011;37694;51.748;14.326;2023-04-05T08:36:57;32.88;;;13.95;;
51612;SDS011;37694;51.748;14.326;2023-04-05T08:39:23;27.17;;;12.68;;
51612;SDS011;37694;51.748;14.326;2023-04-05T08:42:02;31.70;;;13.52;;
51612;SDS011;37694;51.748;14.326;2023-04-05T08:44:36;32.20;;;12.90;;
51612;SDS011;37694;51.748;14.326;2023-04-05T08:47:03;30.63;;;12.75;;
51612;SDS011;37694;51.748;14.326;2023-04-05T08:49:28;28.10;;;11.50;;
51612;SDS011;37694;51.748;14.326;2023-04-05T08:51:54;29.08;;;11.60;;
51612;SDS011;37694;51.748;14.326;2023-04-05T08:54:20;28.67;;;11.45;;
51612;SDS011;37694;51.748;14.326;2023-04-05T08:56:46;25.58;;;12.63;;
51612;SDS011;37694;51.748;14.326;2023-04-05T08:59:15;25.17;;;12.05;;
51612;SDS011;37694;51.748;14.326;2023-04-05T09:01:43;27.23;;;11.68;;
51612;SDS011;37694;51.748;14.326;2023-04-05T09:04:30;28.30;;;12.60;;
51612;SDS011;37694;51.748;14.326;2023-04-05T09:06:56;24.48;;;11.05;;
51612;SDS011;37694;51.748;14.326;2023-04-05T09:09:23;24.00;;;11.43;;
51612;SDS011;37694;51.748;14.326;2023-04-05T09:11:49;29.65;;;12.10;;
51612;SDS011;37694;51.748;14.326;2023-04-05T09:14:15;26.40;;;11.02;;
51612;SDS011;37694;51.748;14.326;2023-04-05T09:16:41;25.70;;;11.77;;
51612;SDS011;37694;51.748;14.326;2023-04-05T09:19:08;29.23;;;11.95;;
51612;SDS011;37694;51.748;14.326;2023-04-05T09:24:31;26.20;;;11.10;;
51612;SDS011;37694;51.748;14.326;2023-04-05T09:27:08;22.67;;;10.73;;
51612;SDS011;37694;51.748;14.326;2023-04-05T09:29:35;20.35;;;9.70;;
51612;SDS011;37694;51.748;14.326;2023-04-05T09:32:02;21.52;;;10.05;;
51612;SDS011;37694;51.748;14.326;2023-04-05T09:34:33;21.17;;;10.57;;
51612;SDS011;37694;51.748;14.326;2023-04-05T09:39:38;20.27;;;9.70;;
51612;SDS011;37694;51.748;14.326;2023-04-05T09:47:31;19.42;;;9.25;;
51612;SDS011;37694;51.748;14.326;2023-04-05T09:49:59;19.52;;;9.75;;
51612;SDS011;37694;51.748;14.326;2023-04-05T09:52:29;19.95;;;9.93;;
51612;SDS011;37694;51.748;14.326;2023-04-05T09:54:57;18.70;;;9.68;;
51612;SDS011;37694;51.748;14.326;2023-04-05T09:57:27;21.08;;;10.32;;
51612;SDS011;37694;51.748;14.326;2023-04-05T09:59:54;18.67;;;10.50;;
51612;SDS011;37694;51.748;14.326;2023-04-05T10:02:20;20.85;;;10.82;;
51612;SDS011;37694;51.748;14.326;2023-04-05T10:04:46;17.30;;;8.93;;
51612;SDS011;37694;51.748;14.326;2023-04-05T10:07:14;20.38;;;10.15;;
51612;SDS011;37694;51.748;14.326;2023-04-05T10:09:42;21.77;;;10.35;;
51612;SDS011;37694;51.748;14.326;2023-04-05T10:12:13;21.27;;;9.77;;
51612;SDS011;37694;51.748;14.326;2023-04-05T10:14:49;16.83;;;9.02;;
51612;SDS011;37694;51.748;14.326;2023-04-05T10:17:16;21.30;;;9.80;;
51612;SDS011;37694;51.748;14.326;2023-04-05T10:28:04;18.67;;;9.38;;
51612;SDS011;37694;51.748;14.326;2023-04-05T10:30:35;16.67;;;8.52;;
51612;SDS011;37694;51.748;14.326;2023-04-05T10:33:21;16.20;;;9.30;;
51612;SDS011;37694;51.748;14.326;2023-04-05T10:39:41;17.80;;;8.73;;
51612;SDS011;37694;51.748;14.326;2023-04-05T10:42:22;15.43;;;8.43;;
51612;SDS011;37694;51.748;14.326;2023-04-05T10:47:28;15.43;;;7.82;;
51612;SDS011;37694;51.748;14.326;2023-04-05T10:49:56;17.02;;;8.25;;
51612;SDS011;37694;51.748;14.326;2023-04-05T10:52:27;15.52;;;8.93;;
51612;SDS011;37694;51.748;14.326;2023-04-05T10:54:53;14.77;;;8.15;;
51612;SDS011;37694;51.748;14.326;2023-04-05T10:57:23;18.50;;;8.60;;
51612;SDS011;37694;51.748;14.326;2023-04-05T10:59:49;16.10;;;8.00;;
51612;SDS011;37694;51.748;14.326;2023-04-05T11:02:16;15.27;;;8.02;;
51612;SDS011;37694;51.748;14.326;2023-04-05T11:04:43;15.82;;;7.75;;
51612;SDS011;37694;51.748;14.326;2023-04-05T11:07:09;12.93;;;7.63;;
51612;SDS011;37694;51.748;14.326;2023-04-05T11:09:35;12.75;;;7.55;;
51612;SDS011;37694;51.748;14.326;2023-04-05T11:12:02;14.20;;;7.38;;
51612;SDS011;37694;51.748;14.326;2023-04-05T11:14:34;13.45;;;7.38;;
51612;SDS011;37694;51.748;14.326;2023-04-05T11:17:01;14.20;;;7.20;;
51612;SDS011;37694;51.748;14.326;2023-04-05T11:22:12;18.63;;;7.60;;
51612;SDS011;37694;51.748;14.326;2023-04-05T11:25:11;13.15;;;7.22;;
51612;SDS011;37694;51.748;14.326;2023-04-05T11:27:31;12.60;;;7.07;;
51612;SDS011;37694;51.748;14.326;2023-04-05T11:29:59;14.05;;;7.90;;
51612;SDS011;37694;51.748;14.326;2023-04-05T11:32:42;13.85;;;7.95;;
51612;SDS011;37694;51.748;14.326;2023-04-05T11:35:15;13.83;;;6.10;;
51612;SDS011;37694;51.748;14.326;2023-04-05T11:40:25;13.55;;;6.75;;
51612;SDS011;37694;51.748;14.326;2023-04-05T11:45:31;13.80;;;7.25;;
51612;SDS011;37694;51.748;14.326;2023-04-05T11:48:10;13.52;;;6.53;;
51612;SDS011;37694;51.748;14.326;2023-04-05T11:50:37;11.35;;;6.60;;
51612;SDS011;37694;51.748;14.326;2023-04-05T11:53:09;15.63;;;7.28;;
51612;SDS011;37694;51.748;14.326;2023-04-05T11:55:39;11.32;;;6.25;;
51612;SDS011;37694;51.748;14.326;2023-04-05T11:58:16;12.30;;;6.57;;
51612;SDS011;37694;51.748;14.326;2023-04-05T12:00:44;15.57;;;7.13;;
51612;SDS011;37694;51.748;14.326;2023-04-05T12:03:11;11.40;;;5.72;;
51612;SDS011;37694;51.748;14.326;2023-04-05T12:06:11;9.48;;;5.82;;
51612;SDS011;37694;51.748;14.326;2023-04-05T12:08:38;6.57;;;4.88;;
51612;SDS011;37694;51.748;14.326;2023-04-05T12:11:05;9.13;;;4.88;;
51612;SDS011;37694;51.748;14.326;2023-04-05T12:13:32;7.00;;;4.25;;
51612;SDS011;37694;51.748;14.326;2023-04-05T12:16:02;4.90;;;3.53;;
51612;SDS011;37694;51.748;14.326;2023-04-05T12:18:30;4.07;;;2.72;;
51612;SDS011;37694;51.748;14.326;2023-04-05T12:20:57;3.25;;;2.50;;
51612;SDS011;37694;51.748;14.326;2023-04-05T12:23:24;4.22;;;2.65;;
51612;SDS011;37694;51.748;14.326;2023-04-05T12:25:50;5.43;;;2.05;;
51612;SDS011;37694;51.748;14.326;2023-04-05T12:28:17;2.35;;;1.73;;
51612;SDS011;37694;51.748;14.326;2023-04-05T12:30:55;1.98;;;1.70;;
51612;SDS011;37694;51.748;14.326;2023-04-05T12:33:31;3.17;;;1.77;;
51612;SDS011;37694;51.748;14.326;2023-04-05T12:36:02;2.45;;;1.70;;
51612;SDS011;37694;51.748;14.326;2023-04-05T12:38:29;1.40;;;1.30;;
51612;SDS011;37694;51.748;14.326;2023-04-05T12:40:58;1.00;;;1.00;;
51612;SDS011;37694;51.748;14.326;2023-04-05T12:43:25;0.95;;;0.95;;
51612;SDS011;37694;51.748;14.326;2023-04-05T12:46:04;0.98;;;0.93;;
51612;SDS011;37694;51.748;14.326;2023-04-05T12:48:33;1.50;;;0.93;;
51612;SDS011;37694;51.748;14.326;2023-04-05T12:51:02;0.98;;;0.90;;
51612;SDS011;37694;51.748;14.326;2023-04-05T12:53:29;0.75;;;0.75;;
51612;SDS011;37694;51.748;14.326;2023-04-05T12:55:55;0.68;;;0.60;;
51612;SDS011;37694;51.748;14.326;2023-04-05T12:58:32;0.55;;;0.50;;
51612;SDS011;37694;51.748;14.326;2023-04-05T13:00:59;0.35;;;0.35;;
51612;SDS011;37694;51.748;14.326;2023-04-05T13:03:25;0.50;;;0.50;;
51612;SDS011;37694;51.748;14.326;2023-04-05T13:05:51;0.40;;;0.40;;
51612;SDS011;37694;51.748;14.326;2023-04-05T13:08:17;0.50;;;0.50;;
51612;SDS011;37694;51.748;14.326;2023-04-05T13:10:44;0.50;;;0.50;;
51612;SDS011;37694;51.748;14.326;2023-04-05T13:13:13;0.88;;;0.43;;
51612;SDS011;37694;51.748;14.326;2023-04-05T13:15:40;0.50;;;0.50;;
51612;SDS011;37694;51.748;14.326;2023-04-05T13:18:06;0.50;;;0.50;;
51612;SDS011;37694;51.748;14.326;2023-04-05T13:20:32;0.52;;;0.52;;
51612;SDS011;37694;51.748;14.326;2023-04-05T13:22:58;0.45;;;0.45;;
51612;SDS011;37694;51.748;14.326;2023-04-05T13:25:23;0.60;;;0.60;;
51612;SDS011;37694;51.748;14.326;2023-04-05T13:27:49;0.50;;;0.50;;
51612;SDS011;37694;51.748;14.326;2023-04-05T13:30:15;0.95;;;0.60;;
51612;SDS011;37694;51.748;14.326;2023-04-05T13:32:42;0.70;;;0.70;;
51612;SDS011;37694;51.748;14.326;2023-04-05T13:35:07;0.68;;;0.50;;
51612;SDS011;37694;51.748;14.326;2023-04-05T13:37:34;0.68;;;0.68;;
51612;SDS011;37694;51.748;14.326;2023-04-05T13:40:00;0.75;;;0.68;;
51612;SDS011;37694;51.748;14.326;2023-04-05T13:42:26;0.95;;;0.73;;
51612;SDS011;37694;51.748;14.326;2023-04-05T13:44:51;1.27;;;0.57;;
51612;SDS011;37694;51.748;14.326;2023-04-05T13:47:17;1.63;;;0.50;;
51612;SDS011;37694;51.748;14.326;2023-04-05T13:49:44;0.77;;;0.77;;
51612;SDS011;37694;51.748;14.326;2023-04-05T13:52:09;0.88;;;0.70;;
51612;SDS011;37694;51.748;14.326;2023-04-05T13:54:35;1.08;;;0.90;;
51612;SDS011;37694;51.748;14.326;2023-04-05T13:57:01;0.63;;;0.63;;
51612;SDS011;37694;51.748;14.326;2023-04-05T13:59:27;0.73;;;0.65;;
51612;SDS011;37694;51.748;14.326;2023-04-05T14:01:53;1.38;;;0.80;;
51612;SDS011;37694;51.748;14.326;2023-04-05T14:04:18;1.02;;;0.90;;
51612;SDS011;37694;51.748;14.326;2023-04-05T14:06:44;1.33;;;0.77;;
51612;SDS011;37694;51.748;14.326;2023-04-05T14:09:10;0.50;;;0.50;;
51612;SDS011;37694;51.748;14.326;2023-04-05T14:11:36;0.80;;;0.77;;
51612;SDS011;37694;51.748;14.326;2023-04-05T14:14:03;0.55;;;0.55;;
51612;SDS011;37694;51.748;14.326;2023-04-05T14:16:28;1.17;;;0.60;;
51612;SDS011;37694;51.748;14.326;2023-04-05T14:18:55;0.63;;;0.63;;
51612;SDS011;37694;51.748;14.326;2023-04-05T14:21:20;0.60;;;0.60;;
51612;SDS011;37694;51.748;14.326;2023-04-05T14:23:47;0.77;;;0.65;;
51612;SDS011;37694;51.748;14.326;2023-04-05T14:26:21;1.98;;;0.70;;
51612;SDS011;37694;51.748;14.326;2023-04-05T14:28:47;1.13;;;0.90;;
51612;SDS011;37694;51.748;14.326;2023-04-05T14:31:13;0.98;;;0.80;;
51612;SDS011;37694;51.748;14.326;2023-04-05T14:33:39;2.33;;;0.80;;
51612;SDS011;37694;51.748;14.326;2023-04-05T14:36:05;7.13;;;1.13;;
51612;SDS011;37694;51.748;14.326;2023-04-05T14:38:30;0.95;;;0.95;;
51612;SDS011;37694;51.748;14.326;2023-04-05T14:40:56;4.13;;;0.80;;
51612;SDS011;37694;51.748;14.326;2023-04-05T14:43:22;5.93;;;1.20;;
51612;SDS011;37694;51.748;14.326;2023-04-05T14:45:49;9.70;;;1.45;;
51612;SDS011;37694;51.748;14.326;2023-04-05T14:48:15;3.35;;;1.35;;
51612;SDS011;37694;51.748;14.326;2023-04-05T14:50:41;7.93;;;1.00;;
51612;SDS011;37694;51.748;14.326;2023-04-05T14:53:07;4.22;;;1.05;;
51612;SDS011;37694;51.748;14.326;2023-04-05T14:55:32;4.22;;;1.10;;
51612;SDS011;37694;51.748;14.326;2023-04-05T14:57:58;5.57;;;1.30;;
51612;SDS011;37694;51.748;14.326;2023-04-05T15:00:24;3.92;;;1.20;;
51612;SDS011;37694;51.748;14.326;2023-04-05T15:02:50;3.67;;;0.90;;
51612;SDS011;37694;51.748;14.326;2023-04-05T15:05:15;9.07;;;2.30;;
51612;SDS011;37694;51.748;14.326;2023-04-05T15:07:42;5.03;;;1.17;;
51612;SDS011;37694;51.748;14.326;2023-04-05T15:10:09;2.90;;;1.15;;
51612;SDS011;37694;51.748;14.326;2023-04-05T15:12:35;3.83;;;0.98;;
51612;SDS011;37694;51.748;14.326;2023-04-05T15:15:00;9.32;;;1.45;;
51612;SDS011;37694;51.748;14.326;2023-04-05T15:17:26;3.63;;;1.10;;
51612;SDS011;37694;51.748;14.326;2023-04-05T15:19:52;2.00;;;0.80;;